createdAt,value
2022-08-05T00:01:36.242Z,100398.09
2022-08-05T00:04:17.260Z,100397.22
2022-08-05T00:06:45.111Z,100401.41
2022-08-05T00:09:15.979Z,100395.94
2022-08-05T00:11:49.436Z,100385.41
2022-08-05T00:14:27.505Z,100382.06
2022-08-05T00:16:56.318Z,100387.13
2022-08-05T00:19:24.864Z,100393.19
2022-08-05T00:22:00.341Z,100397.94
2022-08-05T00:24:30.932Z,100383.16
2022-08-05T00:27:00.263Z,100386.53
2022-08-05T00:29:38.145Z,100388.47
2022-08-05T00:32:12.261Z,100383.13
2022-08-05T00:35:05.019Z,100383.09
2022-08-05T00:37:50.707Z,100382.16
2022-08-05T00:40:27.526Z,100384.66
2022-08-05T00:42:58.403Z,100381.94
2022-08-05T00:45:38.014Z,100387.59
2022-08-05T00:48:09.524Z,100377.56
2022-08-05T00:50:41.933Z,100383.56
2022-08-05T00:53:45.030Z,100372.41
2022-08-05T00:55:58.364Z,100385.91
2022-08-05T00:58:27.554Z,100381.59
2022-08-05T01:00:56.342Z,100390.78
2022-08-05T01:03:24.352Z,100386.78
2022-08-05T01:05:58.667Z,100385.63
2022-08-05T01:08:41.598Z,100385.84
2022-08-05T01:11:22.277Z,100392.69
2022-08-05T01:14:00.050Z,100397.50
2022-08-05T01:16:50.914Z,100415.66
2022-08-05T01:19:46.177Z,100440.94
2022-08-05T01:22:58.120Z,100404.31
2022-08-05T01:26:21.458Z,100398.63
2022-08-05T01:29:23.222Z,100420.88
2022-08-05T01:31:58.886Z,100421.06
2022-08-05T01:35:10.371Z,100430.28
2022-08-05T01:37:47.732Z,100428.22
2022-08-05T01:40:29.218Z,100433.44
2022-08-05T01:42:59.080Z,100413.91
2022-08-05T01:45:35.038Z,100403.44
2022-08-05T01:48:10.970Z,100404.03
2022-08-05T01:50:40.956Z,100410.94
2022-08-05T01:53:54.640Z,100418.66
2022-08-05T01:56:11.356Z,100421.53
2022-08-05T01:58:44.936Z,100414.38
2022-08-05T02:01:14.652Z,100422.41
2022-08-05T02:03:51.976Z,100414.41
2022-08-05T02:06:33.935Z,100412.41
2022-08-05T02:09:06.676Z,100409.94
2022-08-05T02:12:18.469Z,100408.78
2022-08-05T02:15:03.577Z,100412.00
2022-08-05T02:18:33.259Z,100400.72
2022-08-05T02:20:44.148Z,100399.22
2022-08-05T02:23:15.847Z,100397.66
2022-08-05T02:25:49.092Z,100406.34
2022-08-05T02:28:28.833Z,100409.91
2022-08-05T02:31:23.725Z,100401.69
2022-08-05T02:34:05.021Z,100389.28
2022-08-05T02:36:34.715Z,100401.94
2022-08-05T02:39:09.819Z,100411.44
2022-08-05T02:41:57.583Z,100411.50
2022-08-05T02:44:28.600Z,100410.72
2022-08-05T02:47:00.918Z,100407.19
2022-08-05T02:49:40.663Z,100406.25
2022-08-05T02:52:29.290Z,100407.31
2022-08-05T02:55:05.390Z,100421.31
2022-08-05T02:58:11.822Z,100423.44
2022-08-05T03:00:23.158Z,100415.53
2022-08-05T03:02:54.483Z,100423.97
2022-08-05T03:06:56.031Z,100429.84
2022-08-05T03:08:26.961Z,100424.31
2022-08-05T03:11:53.611Z,100417.00
2022-08-05T03:13:51.438Z,100411.03
2022-08-05T03:16:29.985Z,100406.25
2022-08-05T03:19:00.645Z,100402.91
2022-08-05T03:21:28.743Z,100389.84
2022-08-05T03:23:56.844Z,100383.47
2022-08-05T03:26:32.023Z,100386.25
2022-08-05T03:29:00.307Z,100388.31
2022-08-05T03:31:57.394Z,100380.13
2022-08-05T03:34:16.446Z,100385.50
2022-08-05T03:36:43.808Z,100388.91
2022-08-05T03:39:13.262Z,100380.19
2022-08-05T03:41:47.404Z,100381.63
2022-08-05T03:44:19.994Z,100382.81
2022-08-05T03:46:47.256Z,100378.69
2022-08-05T03:49:15.814Z,100385.22
2022-08-05T03:52:50.387Z,100382.38
2022-08-05T03:55:50.066Z,100380.00
2022-08-05T03:57:48.820Z,100394.09
2022-08-05T04:00:21.791Z,100398.25
2022-08-05T04:02:58.446Z,100402.88
2022-08-05T04:05:34.807Z,100391.50
2022-08-05T04:08:14.594Z,100401.69
2022-08-05T04:10:58.409Z,100390.09
2022-08-05T04:13:49.929Z,100390.84
2022-08-05T04:16:15.593Z,100400.28
2022-08-05T04:18:54.248Z,100400.81
2022-08-05T04:22:10.247Z,100394.97
2022-08-05T04:24:19.231Z,100388.78
2022-08-05T04:26:51.281Z,100399.53
2022-08-05T04:29:21.853Z,100393.44
2022-08-05T04:31:50.556Z,100394.28
2022-08-05T04:34:32.803Z,100390.50
2022-08-05T04:37:03.207Z,100389.84
2022-08-05T04:39:32.149Z,100400.06
2022-08-05T04:41:59.849Z,100412.75
2022-08-05T04:44:30.298Z,100407.94
2022-08-05T04:47:09.517Z,100409.41
2022-08-05T04:50:02.782Z,100415.88
2022-08-05T04:53:01.229Z,100415.34
2022-08-05T04:56:33.341Z,100419.84
2022-08-05T04:58:21.638Z,100412.75
2022-08-05T05:00:50.660Z,100423.69
2022-08-05T05:03:18.074Z,100421.69
2022-08-05T05:06:36.705Z,100425.75
2022-08-05T05:08:38.508Z,100420.31
2022-08-05T05:11:10.493Z,100414.94
2022-08-05T05:13:43.221Z,100413.78
2022-08-05T05:16:15.512Z,100416.53
2022-08-05T05:19:08.905Z,100402.88
2022-08-05T05:21:34.050Z,100417.31
2022-08-05T05:24:08.838Z,100420.56
2022-08-05T05:26:36.214Z,100419.91
2022-08-05T05:29:13.657Z,100421.53
2022-08-05T05:31:42.752Z,100438.09
2022-08-05T05:34:21.173Z,100434.34
2022-08-05T05:36:51.350Z,100436.78
2022-08-05T05:39:21.526Z,100443.88
2022-08-05T05:41:54.558Z,100449.03
2022-08-05T05:44:36.574Z,100461.56
2022-08-05T05:47:21.345Z,100477.72
2022-08-05T05:49:52.581Z,100485.72
2022-08-05T05:52:29.963Z,100501.38
2022-08-05T05:55:13.132Z,100514.38
2022-08-05T05:57:52.720Z,100502.06
2022-08-05T06:00:27.794Z,100497.91
2022-08-05T06:03:39.645Z,100498.66
2022-08-05T06:05:53.920Z,100502.25
2022-08-05T06:08:31.486Z,100520.94
2022-08-05T06:11:00.991Z,100517.22
2022-08-05T06:13:28.408Z,100525.16
2022-08-05T06:16:31.423Z,100535.44
2022-08-05T06:18:55.042Z,100548.84
2022-08-05T06:21:22.455Z,100548.31
2022-08-05T06:23:52.605Z,100538.66
2022-08-05T06:26:21.634Z,100545.00
2022-08-05T06:28:51.948Z,100532.59
2022-08-05T06:31:22.005Z,100537.16
2022-08-05T06:34:07.998Z,100553.69
2022-08-05T06:36:56.937Z,100560.34
2022-08-05T06:39:24.611Z,100559.22
2022-08-05T06:41:55.912Z,100556.84
2022-08-05T06:44:25.990Z,100547.84
2022-08-05T06:46:54.478Z,100552.47
2022-08-05T06:49:59.824Z,100539.69
2022-08-05T06:52:36.852Z,100541.31
2022-08-05T06:54:56.094Z,100537.56
2022-08-05T06:58:02.844Z,100540.75
2022-08-05T07:00:12.761Z,100530.25
2022-08-05T07:02:47.421Z,100526.06
2022-08-05T07:05:24.593Z,100545.81
2022-08-05T07:08:04.461Z,100540.06
2022-08-05T07:10:32.627Z,100537.78
2022-08-05T07:13:52.467Z,100535.56
2022-08-05T07:16:39.434Z,100523.97
2022-08-05T07:19:11.156Z,100530.31
2022-08-05T07:21:59.286Z,100529.47
2022-08-05T07:24:28.771Z,100516.31
2022-08-05T07:26:57.027Z,100527.56
2022-08-05T07:29:25.340Z,100535.91
2022-08-05T07:32:12.391Z,100546.13
2022-08-05T07:34:42.433Z,100554.31
2022-08-05T07:37:11.591Z,100562.19
2022-08-05T07:40:26.257Z,100584.66
2022-08-05T07:42:31.469Z,100585.94
2022-08-05T07:45:01.415Z,100582.44
2022-08-05T07:47:31.171Z,100582.41
2022-08-05T07:50:10.200Z,100571.72
2022-08-05T07:52:45.217Z,100581.38
2022-08-05T07:55:15.786Z,100578.78
2022-08-05T07:58:04.039Z,100571.38
2022-08-05T08:00:31.687Z,100569.06
2022-08-05T08:03:14.102Z,100574.59
2022-08-05T08:05:49.585Z,100580.75
2022-08-05T08:08:20.040Z,100568.75
2022-08-05T08:10:48.793Z,100577.53
2022-08-05T08:13:21.879Z,100581.13
2022-08-05T08:16:35.617Z,100577.41
2022-08-05T08:18:43.177Z,100576.41
2022-08-05T08:21:17.730Z,100583.31
2022-08-05T08:24:01.354Z,100583.81
2022-08-05T08:26:32.266Z,100602.03
2022-08-05T08:29:29.612Z,100600.53
2022-08-05T08:31:50.241Z,100578.22
2022-08-05T08:34:29.890Z,100562.97
2022-08-05T08:37:03.294Z,100550.91
2022-08-05T08:39:32.508Z,100565.75
2022-08-05T08:42:10.613Z,100561.78
2022-08-05T08:45:20.710Z,100555.19
2022-08-05T08:48:06.205Z,100558.59
2022-08-05T08:51:23.078Z,100574.47
2022-08-05T08:53:34.411Z,100591.13
2022-08-05T08:56:06.957Z,100602.50
2022-08-05T08:58:43.268Z,100611.81
2022-08-05T09:01:15.769Z,100627.47
2022-08-05T09:03:54.343Z,100621.50
2022-08-05T09:06:29.684Z,100623.88
2022-08-05T09:09:01.006Z,100629.44
2022-08-05T09:11:51.229Z,100625.38
2022-08-05T09:14:57.459Z,100613.22
2022-08-05T09:17:41.075Z,100636.75
2022-08-05T09:20:04.763Z,100635.75
2022-08-05T09:23:19.756Z,100639.03
2022-08-05T09:26:06.167Z,100633.69
2022-08-05T09:28:36.117Z,100628.91
2022-08-05T09:32:38.509Z,100628.78
2022-08-05T09:34:11.567Z,100635.84
2022-08-05T09:36:56.438Z,100644.47
2022-08-05T09:39:41.392Z,100658.94
2022-08-05T09:42:24.482Z,100660.53
2022-08-05T09:45:03.224Z,100654.34
2022-08-05T09:47:55.542Z,100647.69
2022-08-05T09:50:44.175Z,100640.88
2022-08-05T09:53:22.831Z,100635.38
2022-08-05T09:56:04.733Z,100636.84
2022-08-05T09:58:41.999Z,100652.34
2022-08-05T10:01:15.762Z,100656.69
2022-08-05T10:04:13.645Z,100656.84
2022-08-05T10:06:59.270Z,100627.19
2022-08-05T10:09:29.777Z,100627.91
2022-08-05T10:12:18.554Z,100609.56
2022-08-05T10:15:16.193Z,100592.59
2022-08-05T10:18:17.379Z,100583.09
2022-08-05T10:20:57.304Z,100572.13
2022-08-05T10:23:50.909Z,100566.84
2022-08-05T10:26:18.716Z,100575.59
2022-08-05T10:28:51.417Z,100585.59
2022-08-05T10:32:52.922Z,100585.47
2022-08-05T10:34:11.201Z,100614.28
2022-08-05T10:36:41.501Z,100619.34
2022-08-05T10:39:59.137Z,100604.03
2022-08-05T10:42:33.413Z,100606.31
2022-08-05T10:45:21.568Z,100623.63
2022-08-05T10:48:29.808Z,100657.78
2022-08-05T10:51:22.074Z,100668.69
2022-08-05T10:54:01.071Z,100668.44
2022-08-05T10:56:58.461Z,100655.69
2022-08-05T11:00:03.275Z,100653.63
2022-08-05T11:02:34.665Z,100640.72
2022-08-05T11:05:10.420Z,100636.59
2022-08-05T11:08:01.096Z,100639.06
2022-08-05T11:10:33.469Z,100642.28
2022-08-05T11:13:01.327Z,100639.56
2022-08-05T11:16:01.008Z,100652.31
2022-08-05T11:18:34.020Z,100638.38
2022-08-05T11:21:03.588Z,100621.59
2022-08-05T11:24:05.632Z,100626.13
2022-08-05T11:26:40.362Z,100641.72
2022-08-05T11:29:13.265Z,100641.97
2022-08-05T11:31:58.022Z,100633.59
2022-08-05T11:34:51.420Z,100644.31
2022-08-05T11:38:26.305Z,100645.03
2022-08-05T11:41:01.809Z,100644.41
2022-08-05T11:44:08.507Z,100659.47
2022-08-05T11:47:09.380Z,100657.53
2022-08-05T11:49:39.966Z,100651.75
2022-08-05T11:52:11.547Z,100646.34
2022-08-05T11:54:40.641Z,100659.00
2022-08-05T11:57:24.939Z,100658.47
2022-08-05T11:59:53.631Z,100650.50
2022-08-05T12:02:32.976Z,100650.69
2022-08-05T12:05:07.236Z,100662.41
2022-08-05T12:08:08.384Z,100651.72
2022-08-05T12:10:43.633Z,100659.13
2022-08-05T12:13:17.337Z,100660.22
2022-08-05T12:15:56.015Z,100661.47
2022-08-05T12:18:39.000Z,100652.78
2022-08-05T12:21:22.036Z,100645.91
2022-08-05T12:24:07.034Z,100644.47
2022-08-05T12:26:43.965Z,100643.25
2022-08-05T12:29:22.794Z,100648.03
2022-08-05T12:32:02.145Z,100651.78
2022-08-05T12:34:36.894Z,100648.91
2022-08-05T12:37:10.848Z,100643.72
2022-08-05T12:39:51.113Z,100632.53
2022-08-05T12:42:21.250Z,100637.44
2022-08-05T12:44:52.117Z,100637.13
2022-08-05T12:47:30.943Z,100638.22
2022-08-05T12:50:02.191Z,100636.25
2022-08-05T12:52:39.246Z,100640.81
2022-08-05T12:55:32.539Z,100636.97
2022-08-05T12:58:49.408Z,100645.41
2022-08-05T13:02:00.103Z,100654.25
2022-08-05T13:03:42.203Z,100647.13
2022-08-05T13:06:17.527Z,100650.41
2022-08-05T13:08:51.448Z,100650.13
2022-08-05T13:12:01.569Z,100643.47
2022-08-05T13:14:36.786Z,100648.25
2022-08-05T13:17:31.634Z,100646.22
2022-08-05T13:20:19.200Z,100643.66
2022-08-05T13:22:52.413Z,100653.53
2022-08-05T13:25:21.913Z,100655.25
2022-08-05T13:27:57.278Z,100659.47
2022-08-05T13:30:34.318Z,100657.63
2022-08-05T13:33:04.126Z,100658.16
2022-08-05T13:35:47.073Z,100662.44
2022-08-05T13:38:28.034Z,100656.50
2022-08-05T13:41:00.065Z,100643.47
2022-08-05T13:43:44.466Z,100649.94
2022-08-05T13:46:16.245Z,100645.84
2022-08-05T13:48:58.485Z,100655.03
2022-08-05T13:51:40.253Z,100651.19
2022-08-05T13:54:13.680Z,100644.44
2022-08-05T13:56:45.497Z,100644.19
2022-08-05T13:59:30.876Z,100637.22
2022-08-05T14:02:00.469Z,100643.25
2022-08-05T14:04:51.454Z,100654.34
2022-08-05T14:07:59.742Z,100644.25
2022-08-05T14:10:19.236Z,100642.00
2022-08-05T14:12:55.402Z,100654.13
2022-08-05T14:16:05.878Z,100651.41
2022-08-05T14:18:15.117Z,100652.47
2022-08-05T14:20:47.159Z,100655.19
2022-08-05T14:23:24.883Z,100659.25
2022-08-05T14:25:58.967Z,100664.09
2022-08-05T14:28:30.789Z,100669.84
2022-08-05T14:31:01.759Z,100669.41
2022-08-05T14:33:32.666Z,100672.13
2022-08-05T14:36:20.573Z,100673.34
2022-08-05T14:38:50.130Z,100677.78
2022-08-05T14:41:18.699Z,100681.44
2022-08-05T14:44:02.461Z,100689.47
2022-08-05T14:46:35.103Z,100681.22
2022-08-05T14:49:07.509Z,100681.38
2022-08-05T14:51:38.109Z,100685.72
2022-08-05T14:54:28.291Z,100687.88
2022-08-05T14:56:55.147Z,100685.16
2022-08-05T14:59:22.400Z,100705.22
2022-08-05T15:01:50.343Z,100698.31
2022-08-05T15:04:22.372Z,100696.97
2022-08-05T15:06:52.873Z,100702.16
2022-08-05T15:09:52.368Z,100689.94
2022-08-05T15:12:11.614Z,100697.03
2022-08-05T15:14:50.601Z,100689.50
2022-08-05T15:17:46.124Z,100680.22
2022-08-05T15:20:18.580Z,100689.91
2022-08-05T15:22:54.267Z,100690.84
2022-08-05T15:25:52.869Z,100692.06
2022-08-05T15:28:15.732Z,100688.25
2022-08-05T15:30:46.709Z,100689.03
2022-08-05T15:33:56.601Z,100712.44
2022-08-05T15:36:09.040Z,100701.28
2022-08-05T15:38:46.454Z,100711.44
2022-08-05T15:41:21.833Z,100707.00
2022-08-05T15:43:54.504Z,100708.91
2022-08-05T15:46:24.120Z,100709.53
2022-08-05T15:48:54.770Z,100721.50
2022-08-05T15:52:12.811Z,100708.59
2022-08-05T15:54:17.382Z,100708.09
2022-08-05T15:56:44.352Z,100721.63
2022-08-05T15:59:21.601Z,100730.53
2022-08-05T16:01:52.308Z,100726.53
2022-08-05T16:04:25.663Z,100726.22
2022-08-05T16:06:55.550Z,100727.19
2022-08-05T16:09:24.691Z,100734.78
2022-08-05T16:11:54.101Z,100740.31
2022-08-05T16:14:23.045Z,100750.22
2022-08-05T16:16:50.610Z,100756.34
2022-08-05T16:19:19.250Z,100756.00
2022-08-05T16:22:06.745Z,100761.94
2022-08-05T16:24:40.574Z,100770.25
2022-08-05T16:27:09.712Z,100773.53
2022-08-05T16:29:50.298Z,100765.88
2022-08-05T16:32:23.350Z,100762.00
2022-08-05T16:35:00.720Z,100769.91
2022-08-05T16:38:03.094Z,100771.47
2022-08-05T16:40:28.695Z,100781.22
2022-08-05T16:43:03.336Z,100778.75
2022-08-05T16:46:03.613Z,100790.56
2022-08-05T16:48:33.841Z,100792.25
2022-08-05T16:51:09.311Z,100783.06
2022-08-05T16:54:04.955Z,100800.00
2022-08-05T16:56:30.449Z,100798.34
2022-08-05T16:58:58.874Z,100815.47
2022-08-05T17:01:28.243Z,100828.28
2022-08-05T17:04:15.242Z,100828.06
2022-08-05T17:06:42.371Z,100824.63
2022-08-05T17:09:09.490Z,100824.00
2022-08-05T17:11:48.592Z,100829.81
2022-08-05T17:14:22.340Z,100831.81
2022-08-05T17:17:02.631Z,100836.84
2022-08-05T17:19:29.727Z,100851.09
2022-08-05T17:21:58.379Z,100866.59
2022-08-05T17:24:33.947Z,100883.97
2022-08-05T17:27:06.205Z,100868.91
2022-08-05T17:29:41.274Z,100880.19
2022-08-05T17:32:16.999Z,100897.88
2022-08-05T17:34:49.093Z,100892.38
2022-08-05T17:37:40.125Z,100918.75
2022-08-05T17:40:12.422Z,100935.28
2022-08-05T17:42:55.713Z,100925.94
2022-08-05T17:45:38.007Z,100943.19
2022-08-05T17:48:12.005Z,100958.91
2022-08-05T17:50:39.250Z,100959.03
2022-08-05T17:53:17.681Z,100984.22
2022-08-05T17:55:48.048Z,101004.50
2022-08-05T17:58:32.283Z,100990.81
2022-08-05T18:01:08.225Z,100980.94
2022-08-05T18:04:11.947Z,100993.56
2022-08-05T18:09:59.970Z,100988.25
2022-08-05T18:12:59.266Z,100987.00
2022-08-05T18:19:10.850Z,101004.75
2022-08-05T18:22:08.758Z,100992.75
2022-08-05T18:24:43.905Z,101004.91
2022-08-05T18:27:12.692Z,101004.31
2022-08-05T18:29:51.928Z,101005.31
2022-08-05T18:32:27.703Z,101004.50
2022-08-05T18:34:55.741Z,101008.06
2022-08-05T18:37:33.414Z,101022.78
2022-08-05T18:40:33.906Z,101034.47
2022-08-05T18:42:47.920Z,101034.47
2022-08-05T18:45:15.014Z,101035.72
2022-08-05T18:47:42.822Z,101048.31
2022-08-05T18:50:44.829Z,101045.31
2022-08-05T18:53:22.731Z,101041.97
2022-08-05T18:55:52.053Z,101047.22
2022-08-05T18:58:21.241Z,101048.19
2022-08-05T19:00:54.474Z,101056.06
2022-08-05T19:03:55.091Z,101056.72
2022-08-05T19:06:19.153Z,101061.47
2022-08-05T19:08:49.440Z,101055.28
2022-08-05T19:11:16.416Z,101069.75
2022-08-05T19:14:00.944Z,101057.72
2022-08-05T19:16:33.069Z,101064.63
2022-08-05T19:19:03.982Z,101076.13
2022-08-05T19:21:34.301Z,101077.31
2022-08-05T19:24:07.090Z,101073.41
2022-08-05T19:26:54.903Z,101098.03
2022-08-05T19:29:26.688Z,101097.19
2022-08-05T19:32:11.120Z,101102.06
2022-08-05T19:34:38.948Z,101107.72
2022-08-05T19:37:06.643Z,101105.41
2022-08-05T19:39:45.685Z,101106.91
2022-08-05T19:42:35.821Z,101108.81
2022-08-05T19:45:05.604Z,101116.31
2022-08-05T19:47:37.496Z,101112.19
2022-08-05T19:50:07.915Z,101122.28
2022-08-05T19:52:39.649Z,101127.06
2022-08-05T19:56:14.546Z,101140.59
2022-08-05T19:58:10.396Z,101134.97
2022-08-05T20:00:42.106Z,101141.66
2022-08-05T20:03:09.599Z,101132.38
2022-08-05T20:05:50.159Z,101144.75
2022-08-05T20:08:17.534Z,101154.38
2022-08-05T20:10:44.519Z,101152.31
2022-08-05T20:13:16.947Z,101149.19
2022-08-05T20:15:52.073Z,101156.91
2022-08-05T20:18:33.927Z,101157.53
2022-08-05T20:21:06.530Z,101152.03
2022-08-05T20:23:39.899Z,101146.75
2022-08-05T20:26:30.554Z,101143.53
2022-08-05T20:29:27.587Z,101147.19
2022-08-05T20:32:18.105Z,101160.34
2022-08-05T20:34:46.070Z,101180.44
2022-08-05T20:38:04.835Z,101180.69
2022-08-05T20:40:07.588Z,101192.47
2022-08-05T20:42:35.516Z,101199.25
2022-08-05T20:45:04.613Z,101194.41
2022-08-05T20:47:40.278Z,101197.59
2022-08-05T20:50:09.378Z,101217.50
2022-08-05T20:52:41.440Z,101217.84
2022-08-05T20:56:07.274Z,101220.75
2022-08-05T20:57:57.129Z,101230.53
2022-08-05T21:00:49.518Z,101240.28
2022-08-05T21:03:12.189Z,101250.06
2022-08-05T21:05:53.666Z,101251.03
2022-08-05T21:08:26.637Z,101252.22
2022-08-05T21:11:00.486Z,101254.00
2022-08-05T21:13:47.084Z,101256.97
2022-08-05T21:16:20.052Z,101259.44
2022-08-05T21:18:47.408Z,101272.09
2022-08-05T21:21:17.323Z,101270.53
2022-08-05T21:23:50.405Z,101276.47
2022-08-05T21:26:19.070Z,101271.06
2022-08-05T21:28:47.616Z,101269.56
2022-08-05T21:31:19.200Z,101278.25
2022-08-05T21:33:47.717Z,101275.88
2022-08-05T21:36:27.450Z,101263.41
2022-08-05T21:38:57.401Z,101268.84
2022-08-05T21:41:26.109Z,101266.97
2022-08-05T21:44:04.278Z,101266.22
2022-08-05T21:46:45.254Z,101277.53
2022-08-05T21:50:00.472Z,101277.31
2022-08-05T21:56:16.165Z,101280.66
2022-08-05T21:58:48.415Z,101272.22
2022-08-05T22:01:25.972Z,101270.88
2022-08-05T22:03:53.863Z,101276.53
2022-08-05T22:06:35.218Z,101289.84
2022-08-05T22:09:14.589Z,101289.47
2022-08-05T22:11:46.688Z,101305.84
2022-08-05T22:14:34.343Z,101300.75
2022-08-05T22:17:05.294Z,101296.72
2022-08-05T22:20:02.561Z,101281.72
2022-08-05T22:22:27.332Z,101279.81
2022-08-05T22:25:31.169Z,101289.19
2022-08-05T22:37:59.025Z,101311.34
2022-08-05T22:41:09.423Z,101312.16
2022-08-05T22:43:43.179Z,101313.38
2022-08-05T22:46:13.490Z,101315.31
2022-08-05T22:52:32.378Z,101317.03
2022-08-05T22:55:37.292Z,101324.06
2022-08-05T22:58:53.054Z,101335.53
2022-08-05T23:15:12.720Z,101334.09
2022-08-05T23:18:19.381Z,101344.41
2022-08-05T23:24:51.079Z,101342.94
2022-08-05T23:27:22.690Z,101347.66
2022-08-05T23:29:51.802Z,101339.41
2022-08-05T23:35:34.483Z,101344.28
2022-08-05T23:41:41.094Z,101346.69
2022-08-05T23:50:46.163Z,101367.63
2022-08-05T23:54:12.089Z,101378.00
2022-08-05T23:56:40.088Z,101365.91
2022-08-05T23:59:17.054Z,101371.25
